Burchard, Nebraska
Current Conditions -  °F | °C
As of 1:15 AM on Friday 31 Oct 2014 (Local Time) from KBIE Reporting Station
Clear Clear  
Wind Chill: 33°   Ceiling: Unl
Heat Index: 42°   Visibility: 10mi
Dew Point: 33°   Wind: 23mph
Humidity: 69%   Direction: 10°N
Pressure: 30.38"   Gusts: 29mph
Location:  40.15°N, 96.35°W
Report Text: KBIE 310615Z AUTO 01020G25KT 10SM CLR 06/00 A3038 RMK AO2 T00560003
Loading
Personal Weather Stations






























Interactive Weather Map
Tropical Storm Tracking
New forecast layout! Learn more

10-Day Weather Forecast

Advertisements
Track Severe Weather on mobile